x

Port Orford - 15 Nm West Of Port Orford, Or (46015) Wave Buoy

6:50pm - Fri 1st Jul 2016 All times are PDT. -7 hours from GMT.

  • Sig Wave height 3.9ft
  • Swell Direction
  • Peak Period 17s
  • Average Period 5s
  • Wind
    16mph, 18mph gusts
  • Sea Temp 50°f
  • Air Temp 53°f
  • Sea Pressure 1016.9mb
  • Port Orford - 15 Nm West Of Port Orford, Or
  • Port Orford - 15 Nm West Of Port Orford, Or

More Historic Weather Station data

Upgrade to MSW Pro to gain access to the past 30 days of data for over 8000 Wavebouys and Weather Stations around the globe.

Join Pro

Comparision Forecast

View Surf forecast
   
Fri 07/01 6:50pm 4ft 17s 5s 16 18 mph 1016.9mb 50f 53f
5:50pm 4ft 5s 4s 16 18 mph 1017.1mb 50f 54f
4:50pm 4.5ft 5s 4s 18 20 mph 1017.5mb 50f 54f
3:50pm 4.5ft 17s 4s 22 25 mph 1017.6mb 50f 54f
2:50pm 4.5ft 16s 4s 20 22 mph 1018.1mb 50f 54f
1:50pm 4.5ft 5s 4s 20 25 mph 1018.2mb 51f 54f
12:50pm 4.5ft 5s 4s 22 25 mph 1018.4mb 51f 54f
11:50am 5ft 5s 4s 25 29 mph 1018.2mb 52f 54f
10:50am 4.5ft 6s 4s 22 27 mph 1018.5mb 52f 54f
9:50am 5ft 6s 5s 20 22 mph 1018.6mb 51f 53f
8:50am 4.5ft 6s 4s 18 22 mph 1018.7mb 51f 53f
7:50am 5ft 6s 5s 18 22 mph 1018.5mb 51f 53f
6:50am 5ft 6s 5s 20 25 mph 1018.4mb 51f 53f
5:50am 5ft 7s 5s 22 25 mph 1018.4mb 51f 53f
4:50am 5.5ft 7s 5s 20 22 mph 1018.4mb 51f 53f
3:50am 5.5ft 7s 5s 16 18 mph 1018.8mb 51f 51f
2:50am 6ft 6s 6s 13 16 mph 1019.1mb 51f 51f
1:50am 6ft 7s 5s 13 16 mph 1019.6mb 51f 52f
12:50am 6ft 7s 5s 20 22 mph 1019.7mb 51f 53f
Thu 06/30 11:50pm 6ft 6s 5s 22 27 mph 1019.7mb 51f 54f
10:50pm 5.5ft 7s 5s 27 34 mph 1019.7mb 51f 55f
9:50pm 5.5ft 7s 5s 22 27 mph 1019.8mb 51f 54f
8:50pm 5.5ft 7s 5s 20 22 mph 1019.5mb 51f 54f
7:50pm 6ft 6s 5s 22 27 mph 1019.4mb 50f 54f
6:50pm 6.5ft 6s 5s 25 29 mph 1019.2mb 50f 54f
4:50pm 6ft 6s 5s 27 31 mph 1019.7mb 51f 55f
3:50pm 6ft 6s 5s 22 27 mph 1020.4mb 51f 54f
2:50pm 6ft 7s 5s 22 27 mph 1020.7mb 51f 55f
1:50pm 6ft 7s 5s 25 29 mph 1020.9mb 52f 54f
12:50pm 5ft 7s 5s 22 27 mph 1021.5mb 52f 54f
11:50am 5ft 7s 5s 22 27 mph 1021.8mb 51f 55f
10:50am 5.5ft 6s 5s 20 25 mph 1022.2mb 51f 54f
9:50am 5ft 7s 5s 22 25 mph 1022.2mb 51f 54f
8:50am 5.5ft 6s 5s 18 20 mph 1022.5mb 52f 53f
7:50am 5ft 6s 5s 18 20 mph 1022.3mb 51f 53f
6:50am 4.5ft 7s 5s 20 25 mph 1022mb 52f 54f
5:50am 5ft 6s 5s 18 22 mph 1022mb 51f 53f
4:50am 5ft 6s 5s 20 22 mph 1021.9mb 52f 53f
3:50am 6ft 7s 5s 20 25 mph 1021.9mb 52f 53f
2:50am 6ft 7s 5s 20 22 mph 1022mb 52f 53f
1:50am 6ft 7s 5s 20 22 mph 1022mb 52f 54f
12:50am 6ft 7s 5s 22 27 mph 1022mb 53f 54f
Wed 06/29 11:50pm 6ft 7s 5s 25 29 mph 1022mb 53f 55f
10:50pm 5.5ft 7s 5s 25 29 mph 1022.2mb 52f 55f
9:50pm 5.5ft 7s 5s 22 27 mph 1022mb 52f 55f
8:50pm 5ft 7s 5s 20 25 mph 1021.8mb 52f 54f
7:50pm 5ft 8s 5s 20 25 mph 1021.7mb 52f 55f
6:50pm 6ft 7s 5s 20 22 mph 1021.6mb 52f 55f
5:50pm 6ft 7s 5s 20 25 mph 1021.2mb 52f 55f
4:50pm 6ft 6s 5s 22 27 mph 1021.1mb 52f 55f
3:50pm 6ft 7s 5s 22 27 mph 1021.4mb 52f 55f
2:50pm 6.5ft 7s 5s 25 27 mph 1021.4mb 52f 55f
1:50pm 6ft 7s 5s 22 27 mph 1021.5mb 52f 55f
12:50pm 6ft 7s 5s 22 25 mph 1021.8mb 52f 55f
11:50am 6.5ft 8s 5s 20 22 mph 1021.9mb 52f 54f
10:50am 6ft 8s 5s 22 25 mph 1021.8mb 51f 54f
9:50am 6ft 8s 5s 20 25 mph 1021.9mb 53f 54f
8:50am 6ft 7s 5s 20 25 mph 1021.7mb 53f 54f
7:50am 6ft 7s 5s 20 25 mph 1021.6mb 53f 54f
6:50am 6.5ft 8s 5s 20 25 mph 1021.3mb 52f 54f
5:50am 5.5ft 7s 5s 20 22 mph 1021.3mb 53f 54f
4:50am 6.5ft 7s 5s 22 27 mph 1021.1mb 53f 55f
3:50am 6ft 7s 5s 20 22 mph 1021.4mb 53f 54f
2:50am 6.5ft 7s 5s 20 25 mph 1021.3mb 53f 54f
1:50am 6ft 8s 5s 22 25 mph 1021.6mb 53f 55f
12:50am 6ft 7s 5s 20 22 mph 1021.7mb 54f 54f
Tue 06/28 11:50pm 6ft 7s 5s 25 27 mph 1021.7mb 54f 55f
10:50pm 6ft 7s 5s 27 31 mph 1021.7mb 55f 56f
9:50pm 6ft 6s 5s 25 34 mph 1021.6mb 55f 56f
8:50pm 6ft 5s 5s 25 29 mph 1021.3mb 55f 56f
7:50pm 6ft 6s 5s 22 29 mph 1021.2mb 54f 56f
6:50pm 6ft 8s 5s 22 27 mph 1021.2mb 53f 56f
5:50pm 6ft 6s 5s 25 29 mph 1021.1mb 53f 56f
4:50pm 6ft 7s 5s 22 29 mph 1021.2mb 53f 55f
3:50pm 6ft 6s 5s 22 29 mph 1021.3mb 53f 55f
2:50pm 5.5ft 7s 5s 22 25 mph 1021.8mb 53f 55f
1:50pm 6ft 7s 5s 22 25 mph 1022.1mb 53f 55f
12:50pm 6ft 6s 5s 22 27 mph 1022mb 53f 54f
11:50am 6ft 7s 5s 20 25 mph 1021.9mb 53f 54f
10:50am 6ft 7s 5s 20 22 mph 1022.1mb 54f 54f
9:50am 5.5ft 7s 5s 20 25 mph 1022.4mb 54f 53f
8:50am 6ft 7s 5s 20 22 mph 1022.2mb 54f 54f
7:50am 6ft 7s 5s 20 25 mph 1022.1mb 54f 54f
6:50am 6ft 7s 5s 22 25 mph 1021.7mb 54f 54f
5:50am 6ft 7s 5s 22 25 mph 1021.5mb 54f 54f
4:50am 6ft 6s 5s 22 27 mph 1021.3mb 54f 55f
3:50am 6ft 7s 5s 22 27 mph 1021.5mb 54f 55f